Nearby METAR Reports

 

KRNT - Renton, Washington, USA
Distance from station: NNW 3mi, 4km
Updated: Sat, 04-Feb-2023 6:53pm PST
Light rain, Overcast
Light rain, Overcast
 Wind from varies
Wind: varies 3 mph , 6 km/h
Temperature: 48°F , 9°C
Dew Point: 43°F , 6°C
Humidity: 82%
Barometer: 29.86 inHg , 1011.2 hPa
Summary: Light rain
Clouds: Overcast
Visibility: 10 miles , 16 km
Cloud details: Overcast 5000 ft
2023/02/05 02:53 KRNT 050253Z AUTO VRB03KT 10SM -RA OVC050 09/06 A2986 RMK AO2 RAB17 SLP116 P0000 60000 T00940061 56012 $
KSEA - Seattle/Metro, Washington, USA
Distance from station: W 5mi, 9km
Updated: Sat, 04-Feb-2023 6:53pm PST
Light rain, Overcast
Light rain, Overcast
 Wind from SE
Wind: SE 7 mph , 11 km/h
Temperature: 48°F , 9°C
Wind Chill: 45°F , 7°C
Dew Point: 39°F , 4°C
Humidity: 71%
Barometer: 29.86 inHg , 1011.2 hPa
Summary: Light rain
Clouds: Overcast
Visibility: 10 miles , 16 km
Cloud details: Overcast 4800 ft
2023/02/05 02:53 KSEA 050253Z 14006KT 10SM -RA OVC048 09/04 A2986 RMK AO2 RAB03E36B52 SLP119 P0000 60000 T00890044 56009
KBFI - Seattle/Boeing, Washington, USA
Distance from station: NW 8mi, 13km
Updated: Sat, 04-Feb-2023 6:53pm PST
Light rain, Overcast
Light rain, Overcast
 Wind from calm
Wind: Calm
Temperature: 48°F , 9°C
Dew Point: 45°F , 7°C
Humidity: 87%
Barometer: 29.86 inHg , 1011.2 hPa
Summary: Light rain
Clouds: Overcast
Visibility: 10 miles , 16 km
Cloud details: Overcast 5000 ft
2023/02/05 02:53 KBFI 050253Z 00000KT 10SM -RA OVC050 09/07 A2986 RMK AO2 RAB16 SLP111 P0000 60000 T00890067 56012
 
KTIW - Tacoma, Washington, USA
Distance from station: SW 22mi, 36km
Updated: Sat, 04-Feb-2023 6:53pm PST
Light rain, Mist, Overcast
Light rain, Mist, Overcast
 Wind from SSW
Wind: SSW 6 mph , 9 km/h
Temperature: 46°F , 8°C
Wind Chill: 43°F , 6°C
Dew Point: 43°F , 6°C
Humidity: 87%
Barometer: 29.87 inHg , 1011.5 hPa
Summary: Light rain, Mist
Clouds: Overcast
Visibility: 6 miles , 10 km
Cloud details: Overcast 3900 ft
2023/02/05 02:53 KTIW 050253Z 20005KT 6SM -RA BR OVC039 08/06 A2987 RMK AO2 RAE24B26 SLP115 P0002 60002 T00780056 56008 $
KPLU - Puyallup/Thun, Washington, USA
Distance from station: S 25mi, 41km
Updated: Sat, 04-Feb-2023 7:41pm PST
unable to load KPLU data RC=404
unable to load KPLU data RC=404
 
KPWT - Bremerton Ntnl, Washington, USA
Distance from station: W 26mi, 41km
Updated: Sat, 04-Feb-2023 6:56pm PST
Light rain, Overcast
Light rain, Overcast
 Wind from SSW
Wind: SSW 5 mph , 7 km/h
Temperature: 45°F , 7°C
Wind Chill: 42°F , 6°C
Dew Point: 45°F , 7°C
Humidity: 100%
Barometer: 29.86 inHg , 1011.2 hPa
Summary: Light rain
Clouds: Overcast
Visibility: 10 miles , 16 km
Cloud details: Mostly cloudy 3400 ft
Overcast 4100 ft
2023/02/05 02:56 KPWT 050256Z AUTO 20004KT 10SM -RA BKN034 OVC041 07/07 A2986 RMK AO2 SLP118 P0002 60002 T00720072 56011
 
KTCM - Tacoma/Mc Chord, Washington, USA
Distance from station: SSW 27mi, 43km
Updated: Sat, 04-Feb-2023 6:55pm PST
Light rain, Overcast
Light rain, Overcast
 Wind from S
Wind: S 6 mph , 9 km/h
Temperature: 45°F , 7°C
Wind Chill: 42°F , 6°C
Dew Point: 45°F , 7°C
Humidity: 100%
Barometer: 29.86 inHg , 1011.2 hPa
Summary: Light rain
Clouds: Overcast
Visibility: 10 miles , 16 km
Cloud details: Overcast 4200 ft
2023/02/05 02:55 KTCM 050255Z AUTO 18005KT 10SM -RA OVC042 07/07 A2986 RMK AO2 RAB11 SLP117 P0001 60001 T00730073 56007
KPAE - Everett, Washington, USA
Distance from station: N 32mi, 51km
Updated: Sat, 04-Feb-2023 6:53pm PST
Overcast
Overcast
 Wind from SSE
Wind: SSE 16 mph , 26 km/h
Temperature: 48°F , 9°C
Wind Chill: 42°F , 6°C
Dew Point: 39°F , 4°C
Humidity: 71%
Barometer: 29.85 inHg , 1010.8 hPa
Clouds: Overcast
Visibility: 10 miles , 16 km
Cloud details: Few Clouds 4700 ft
Mostly cloudy 6500 ft
Overcast 9500 ft
2023/02/05 02:53 KPAE 050253Z 16014KT 10SM FEW047 BKN065 OVC095 09/04 A2985 RMK AO2 SLP111 60000 T00940044 56017
KGRF - Fort Lewis/Gray, Washington, USA
Distance from station: SSW 32mi, 52km
Updated: Sat, 04-Feb-2023 6:55pm PST
Light rain, Overcast
Light rain, Overcast
 Wind from ENE
Wind: ENE 3 mph , 6 km/h
Temperature: 45°F , 7°C
Dew Point: 41°F , 5°C
Humidity: 87%
Barometer: 29.84 inHg , 1010.5 hPa
Summary: Light rain
Clouds: Overcast
Visibility: 10 miles , 16 km
Cloud details: Overcast 3900 ft
2023/02/05 02:55 KGRF 050255Z AUTO 06003KT 10SM -RA OVC039 07/05 A2984 RMK AO2 RAB00 SLP110 P0002 60002 T00720053 57009 $
 
KSMP - Stampede Pass, Washington, USA
Distance from station: ESE 42mi, 68km
Updated: Sat, 04-Feb-2023 7:12pm PST
Light snow, Fog, Overcast
Light snow, Fog, Overcast
 Wind from varies
Wind: varies 6 mph , 9 km/h
Temperature: 32°F , 0°C
Wind Chill: 26°F , -3°C
Dew Point: 30°F , -1°C
Humidity: 93%
Barometer: 29.82 inHg , 1009.8 hPa
Summary: Light snow, Fog
Clouds: Overcast
Visibility: 1/4 mile , 0.4 km
Cloud details: Overcast 100 ft
2023/02/05 03:12 KSMP 050312Z AUTO VRB05KT 1/4SM -SN FG VV001 00/M01 A2982 RMK AO2 P0001 T00001011
KSHN - Shelton, Washington, USA
Distance from station: WSW 46mi, 75km
Updated: Sat, 04-Feb-2023 6:53pm PST
Light rain, Mist, Overcast
Light rain, Mist, Overcast
 Wind from ENE
Wind: ENE 3 mph , 6 km/h
Temperature: 46°F , 8°C
Dew Point: 45°F , 7°C
Humidity: 93%
Barometer: 29.83 inHg , 1010.2 hPa
Summary: Light rain, Mist
Clouds: Overcast
Visibility: 6 miles , 10 km
Cloud details: Overcast 3900 ft
2023/02/05 02:53 KSHN 050253Z AUTO 06003KT 6SM -RA BR OVC039 08/07 A2983 RMK AO2 SLP106 P0006 60009 T00780072 57012
KOLM - Olympia, Washington, USA
Distance from station: SW 47mi, 76km
Updated: Sat, 04-Feb-2023 6:54pm PST
Light rain, Overcast
Light rain, Overcast
 Wind from E
Wind: E 5 mph , 7 km/h
Temperature: 45°F , 7°C
Wind Chill: 42°F , 6°C
Dew Point: 45°F , 7°C
Humidity: 100%
Barometer: 29.85 inHg , 1010.8 hPa
Summary: Light rain
Clouds: Overcast
Visibility: 7 miles , 11 km
Cloud details: Overcast 4300 ft
2023/02/05 02:54 KOLM 050254Z 09004KT 7SM -RA OVC043 07/07 A2985 RMK AO2 SLP108 P0006 60009 T00720067 58013
 
KAWO - Arlington Muni, Washington, USA
Distance from station: N 49mi, 78km
Updated: Sat, 04-Feb-2023 6:56pm PST
Mostly cloudy
Mostly cloudy
 Wind from calm
Wind: Calm
Temperature: 45°F , 7°C
Dew Point: 43°F , 6°C
Humidity: 93%
Barometer: 29.86 inHg , 1011.2 hPa
Clouds: Mostly cloudy
Visibility: 10 miles , 16 km
Cloud details: Mostly cloudy 4700 ft
2023/02/05 02:56 KAWO 050256Z AUTO 00000KT 10SM BKN047 07/06 A2986 RMK AO2 RAE01B31E45 SLP117 P0000 60000 T00720061 56014